Disclaimer

Please do not use the information listed here in-flight or in-navigation, as they are not provided to us by the airports but are provided by volunteers, so they might be outdated.

Search


Regions


Airport information page

Radio informations:
Tower (TWR) - 118.8 MHz

Airport informations:
Latitude: 01° 54' 19.69" N
Longitude: 009° 48' 20.45" E
Elevation: 13 feet - 4 meters
Operating hours: Remarks
Operating agency: Civil government, landing fees and diplomatic clearance may be required
Timezone: UTC+1
Fuel: 100/130 octane gasoline, leaded, MIL-L-5572F (GREEN)

80/87 octane gasoline, leaded, MIL-L-5572F (RED)

Unknown fuel type or whether there is any fuel.

Runway information:
04/22 - 7001 x 148 feet< - >2134 x 45 meters

Recent METARs:
FGBT 141400Z 14006KT 8000 SCT010 25/24 Q1007
FGBT 141600Z 14006KT 8000 SCT010 25/25 Q1007
FGBT 141600Z 14006KT 8000 SCT010 25/25 Q1007

Airport on the map: